sensor_id;sensor_type;location;lat;lon;timestamp;P1;durP1;ratioP1;P2;durP2;ratioP2
15065;SDS011;7632;64.944;20.038;2023-08-01T04:36:02;7.05;;;4.85;;
15065;SDS011;7632;64.944;20.038;2023-08-01T04:38:36;5.03;;;4.20;;
15065;SDS011;7632;64.944;20.038;2023-08-01T04:41:02;4.75;;;4.00;;
15065;SDS011;7632;64.944;20.038;2023-08-01T04:43:29;4.05;;;3.65;;
15065;SDS011;7632;64.944;20.038;2023-08-01T04:45:56;6.20;;;3.97;;
15065;SDS011;7632;64.944;20.038;2023-08-01T04:48:22;4.22;;;3.45;;
15065;SDS011;7632;64.944;20.038;2023-08-01T04:50:49;4.63;;;3.70;;
15065;SDS011;7632;64.944;20.038;2023-08-01T04:53:17;5.43;;;4.10;;
15065;SDS011;7632;64.944;20.038;2023-08-01T04:55:44;4.25;;;3.85;;
15065;SDS011;7632;64.944;20.038;2023-08-01T04:58:10;7.50;;;3.70;;
15065;SDS011;7632;64.944;20.038;2023-08-01T05:00:37;4.57;;;3.53;;
15065;SDS011;7632;64.944;20.038;2023-08-01T05:03:04;9.98;;;4.68;;
15065;SDS011;7632;64.944;20.038;2023-08-01T05:05:30;6.95;;;4.53;;
15065;SDS011;7632;64.944;20.038;2023-08-01T05:07:57;4.78;;;4.28;;
15065;SDS011;7632;64.944;20.038;2023-08-01T05:10:25;4.80;;;4.22;;
15065;SDS011;7632;64.944;20.038;2023-08-01T05:12:52;4.80;;;4.40;;
15065;SDS011;7632;64.944;20.038;2023-08-01T05:15:18;4.60;;;4.20;;
15065;SDS011;7632;64.944;20.038;2023-08-01T05:17:45;4.78;;;4.38;;
15065;SDS011;7632;64.944;20.038;2023-08-01T05:20:12;7.50;;;4.30;;
15065;SDS011;7632;64.944;20.038;2023-08-01T05:22:39;4.88;;;4.38;;
15065;SDS011;7632;64.944;20.038;2023-08-01T05:25:06;4.97;;;4.25;;
15065;SDS011;7632;64.944;20.038;2023-08-01T05:27:34;5.72;;;4.75;;
15065;SDS011;7632;64.944;20.038;2023-08-01T05:30:01;7.05;;;4.82;;
15065;SDS011;7632;64.944;20.038;2023-08-01T05:32:28;5.60;;;5.00;;
15065;SDS011;7632;64.944;20.038;2023-08-01T05:34:54;5.70;;;5.20;;
15065;SDS011;7632;64.944;20.038;2023-08-01T05:37:21;5.85;;;5.13;;
15065;SDS011;7632;64.944;20.038;2023-08-01T05:39:49;5.68;;;5.15;;
15065;SDS011;7632;64.944;20.038;2023-08-01T05:42:16;7.70;;;5.60;;
15065;SDS011;7632;64.944;20.038;2023-08-01T05:44:44;6.53;;;5.78;;
15065;SDS011;7632;64.944;20.038;2023-08-01T05:47:11;6.43;;;5.57;;
15065;SDS011;7632;64.944;20.038;2023-08-01T05:49:38;6.50;;;5.90;;
15065;SDS011;7632;64.944;20.038;2023-08-01T05:52:06;7.40;;;6.45;;
15065;SDS011;7632;64.944;20.038;2023-08-01T05:54:33;6.57;;;5.82;;
15065;SDS011;7632;64.944;20.038;2023-08-01T05:57:00;6.13;;;5.60;;
15065;SDS011;7632;64.944;20.038;2023-08-01T05:59:27;5.80;;;5.20;;
15065;SDS011;7632;64.944;20.038;2023-08-01T06:01:55;6.00;;;5.45;;
15065;SDS011;7632;64.944;20.038;2023-08-01T06:04:21;6.47;;;5.72;;
15065;SDS011;7632;64.944;20.038;2023-08-01T06:06:48;6.32;;;5.50;;
15065;SDS011;7632;64.944;20.038;2023-08-01T06:09:15;6.40;;;5.80;;
15065;SDS011;7632;64.944;20.038;2023-08-01T06:11:42;5.68;;;5.18;;
15065;SDS011;7632;64.944;20.038;2023-08-01T06:14:08;6.38;;;5.78;;
15065;SDS011;7632;64.944;20.038;2023-08-01T06:16:35;5.88;;;5.38;;
15065;SDS011;7632;64.944;20.038;2023-08-01T06:19:03;6.07;;;5.47;;
15065;SDS011;7632;64.944;20.038;2023-08-01T06:21:30;6.20;;;5.55;;
15065;SDS011;7632;64.944;20.038;2023-08-01T06:23:57;4.88;;;4.47;;
15065;SDS011;7632;64.944;20.038;2023-08-01T06:26:24;4.90;;;4.50;;
15065;SDS011;7632;64.944;20.038;2023-08-01T06:28:51;5.13;;;4.63;;
15065;SDS011;7632;64.944;20.038;2023-08-01T06:31:18;4.78;;;4.38;;
15065;SDS011;7632;64.944;20.038;2023-08-01T06:33:45;6.03;;;5.43;;
15065;SDS011;7632;64.944;20.038;2023-08-01T06:36:13;7.53;;;5.20;;
15065;SDS011;7632;64.944;20.038;2023-08-01T06:38:41;5.05;;;4.63;;
15065;SDS011;7632;64.944;20.038;2023-08-01T06:41:08;5.20;;;4.68;;
15065;SDS011;7632;64.944;20.038;2023-08-01T06:43:35;5.63;;;4.82;;
15065;SDS011;7632;64.944;20.038;2023-08-01T06:46:02;5.63;;;4.78;;
15065;SDS011;7632;64.944;20.038;2023-08-01T06:48:29;5.93;;;4.50;;
15065;SDS011;7632;64.944;20.038;2023-08-01T06:50:56;6.28;;;4.10;;
15065;SDS011;7632;64.944;20.038;2023-08-01T06:53:24;4.57;;;3.97;;
15065;SDS011;7632;64.944;20.038;2023-08-01T06:55:51;8.48;;;3.95;;
15065;SDS011;7632;64.944;20.038;2023-08-01T06:58:17;4.38;;;3.97;;
15065;SDS011;7632;64.944;20.038;2023-08-01T07:00:44;4.47;;;4.05;;
15065;SDS011;7632;64.944;20.038;2023-08-01T07:03:11;5.15;;;3.78;;
15065;SDS011;7632;64.944;20.038;2023-08-01T07:05:37;4.93;;;4.20;;
15065;SDS011;7632;64.944;20.038;2023-08-01T07:08:04;4.32;;;3.92;;
15065;SDS011;7632;64.944;20.038;2023-08-01T07:10:35;5.00;;;4.47;;
15065;SDS011;7632;64.944;20.038;2023-08-01T07:13:02;4.22;;;3.90;;
15065;SDS011;7632;64.944;20.038;2023-08-01T07:15:29;5.30;;;4.07;;
15065;SDS011;7632;64.944;20.038;2023-08-01T07:17:56;4.10;;;3.70;;
15065;SDS011;7632;64.944;20.038;2023-08-01T07:20:23;4.00;;;3.60;;
15065;SDS011;7632;64.944;20.038;2023-08-01T07:22:49;6.90;;;3.80;;
15065;SDS011;7632;64.944;20.038;2023-08-01T07:25:16;4.40;;;4.00;;
15065;SDS011;7632;64.944;20.038;2023-08-01T07:27:45;4.20;;;3.80;;
15065;SDS011;7632;64.944;20.038;2023-08-01T07:30:12;4.30;;;3.88;;
15065;SDS011;7632;64.944;20.038;2023-08-01T07:32:39;3.92;;;3.58;;
15065;SDS011;7632;64.944;20.038;2023-08-01T07:35:07;3.88;;;3.55;;
15065;SDS011;7632;64.944;20.038;2023-08-01T07:37:34;4.90;;;3.58;;
15065;SDS011;7632;64.944;20.038;2023-08-01T07:40:03;4.28;;;3.88;;
15065;SDS011;7632;64.944;20.038;2023-08-01T07:42:30;4.95;;;3.63;;
15065;SDS011;7632;64.944;20.038;2023-08-01T07:44:58;3.92;;;3.63;;
15065;SDS011;7632;64.944;20.038;2023-08-01T07:47:25;3.90;;;3.60;;
15065;SDS011;7632;64.944;20.038;2023-08-01T07:49:52;4.88;;;3.55;;
15065;SDS011;7632;64.944;20.038;2023-08-01T07:52:19;3.28;;;2.97;;
15065;SDS011;7632;64.944;20.038;2023-08-01T07:54:45;4.13;;;3.45;;
15065;SDS011;7632;64.944;20.038;2023-08-01T07:57:12;3.97;;;3.50;;
15065;SDS011;7632;64.944;20.038;2023-08-01T07:59:39;4.53;;;3.58;;
15065;SDS011;7632;64.944;20.038;2023-08-01T08:02:07;3.30;;;3.00;;
15065;SDS011;7632;64.944;20.038;2023-08-01T08:04:33;6.97;;;3.58;;
15065;SDS011;7632;64.944;20.038;2023-08-01T08:07:00;4.35;;;3.38;;
15065;SDS011;7632;64.944;20.038;2023-08-01T08:09:27;6.28;;;3.05;;
15065;SDS011;7632;64.944;20.038;2023-08-01T08:11:53;5.32;;;3.38;;
15065;SDS011;7632;64.944;20.038;2023-08-01T08:14:22;3.08;;;2.78;;
15065;SDS011;7632;64.944;20.038;2023-08-01T08:16:49;4.18;;;3.08;;
15065;SDS011;7632;64.944;20.038;2023-08-01T08:19:17;4.28;;;3.22;;
15065;SDS011;7632;64.944;20.038;2023-08-01T08:21:44;4.03;;;3.72;;
15065;SDS011;7632;64.944;20.038;2023-08-01T08:24:10;5.40;;;3.10;;
15065;SDS011;7632;64.944;20.038;2023-08-01T08:26:37;3.78;;;2.75;;
15065;SDS011;7632;64.944;20.038;2023-08-01T08:29:04;5.25;;;3.05;;
15065;SDS011;7632;64.944;20.038;2023-08-01T08:31:31;3.72;;;2.90;;
15065;SDS011;7632;64.944;20.038;2023-08-01T08:33:58;5.07;;;2.95;;
15065;SDS011;7632;64.944;20.038;2023-08-01T08:36:26;3.72;;;3.38;;
15065;SDS011;7632;64.944;20.038;2023-08-01T08:38:53;3.50;;;3.20;;
15065;SDS011;7632;64.944;20.038;2023-08-01T08:41:20;3.40;;;3.10;;
15065;SDS011;7632;64.944;20.038;2023-08-01T08:43:48;3.97;;;3.38;;
15065;SDS011;7632;64.944;20.038;2023-08-01T08:46:15;3.15;;;2.85;;
15065;SDS011;7632;64.944;20.038;2023-08-01T08:48:43;5.25;;;3.00;;
15065;SDS011;7632;64.944;20.038;2023-08-01T08:51:11;3.55;;;3.10;;
15065;SDS011;7632;64.944;20.038;2023-08-01T08:53:39;3.42;;;2.92;;
15065;SDS011;7632;64.944;20.038;2023-08-01T08:56:07;3.58;;;2.97;;
15065;SDS011;7632;64.944;20.038;2023-08-01T08:58:34;2.75;;;2.40;;
15065;SDS011;7632;64.944;20.038;2023-08-01T09:01:02;3.42;;;2.50;;
15065;SDS011;7632;64.944;20.038;2023-08-01T09:03:30;4.28;;;2.80;;
15065;SDS011;7632;64.944;20.038;2023-08-01T09:05:59;3.05;;;2.75;;
15065;SDS011;7632;64.944;20.038;2023-08-01T09:08:31;2.97;;;2.65;;
15065;SDS011;7632;64.944;20.038;2023-08-01T09:11:00;4.90;;;2.70;;
15065;SDS011;7632;64.944;20.038;2023-08-01T09:13:27;3.38;;;2.55;;
15065;SDS011;7632;64.944;20.038;2023-08-01T09:15:54;4.18;;;3.03;;
15065;SDS011;7632;64.944;20.038;2023-08-01T09:18:20;4.85;;;2.55;;
15065;SDS011;7632;64.944;20.038;2023-08-01T09:20:47;2.53;;;2.33;;
15065;SDS011;7632;64.944;20.038;2023-08-01T09:23:16;2.65;;;2.40;;
15065;SDS011;7632;64.944;20.038;2023-08-01T09:25:43;2.72;;;2.45;;
15065;SDS011;7632;64.944;20.038;2023-08-01T09:28:16;2.83;;;2.25;;
15065;SDS011;7632;64.944;20.038;2023-08-01T09:30:47;2.47;;;2.28;;
15065;SDS011;7632;64.944;20.038;2023-08-01T09:33:14;3.28;;;2.65;;
15065;SDS011;7632;64.944;20.038;2023-08-01T09:35:41;2.95;;;2.22;;
15065;SDS011;7632;64.944;20.038;2023-08-01T09:38:09;2.67;;;2.47;;
15065;SDS011;7632;64.944;20.038;2023-08-01T09:40:37;5.60;;;2.47;;
15065;SDS011;7632;64.944;20.038;2023-08-01T09:43:03;3.33;;;2.20;;
15065;SDS011;7632;64.944;20.038;2023-08-01T09:45:32;3.42;;;2.20;;
15065;SDS011;7632;64.944;20.038;2023-08-01T09:47:59;3.08;;;2.42;;
15065;SDS011;7632;64.944;20.038;2023-08-01T09:50:26;2.90;;;2.60;;
15065;SDS011;7632;64.944;20.038;2023-08-01T09:52:53;2.55;;;2.20;;
15065;SDS011;7632;64.944;20.038;2023-08-01T09:55:20;6.53;;;2.20;;
15065;SDS011;7632;64.944;20.038;2023-08-01T09:57:53;3.65;;;2.45;;
15065;SDS011;7632;64.944;20.038;2023-08-01T10:00:24;3.50;;;2.30;;
15065;SDS011;7632;64.944;20.038;2023-08-01T10:02:53;3.95;;;2.30;;
15065;SDS011;7632;64.944;20.038;2023-08-01T10:05:20;3.25;;;2.30;;
15065;SDS011;7632;64.944;20.038;2023-08-01T10:07:48;2.40;;;2.20;;
15065;SDS011;7632;64.944;20.038;2023-08-01T10:10:15;2.58;;;2.10;;
15065;SDS011;7632;64.944;20.038;2023-08-01T10:12:43;2.40;;;2.20;;
15065;SDS011;7632;64.944;20.038;2023-08-01T10:15:13;2.40;;;2.20;;
15065;SDS011;7632;64.944;20.038;2023-08-01T10:17:40;3.00;;;2.15;;
15065;SDS011;7632;64.944;20.038;2023-08-01T10:20:09;3.83;;;2.33;;
15065;SDS011;7632;64.944;20.038;2023-08-01T10:22:37;2.53;;;2.33;;
15065;SDS011;7632;64.944;20.038;2023-08-01T10:25:11;2.40;;;2.20;;
15065;SDS011;7632;64.944;20.038;2023-08-01T10:27:38;2.05;;;1.92;;
15065;SDS011;7632;64.944;20.038;2023-08-01T10:30:11;3.50;;;2.30;;
15065;SDS011;7632;64.944;20.038;2023-08-01T10:32:39;5.07;;;2.47;;
15065;SDS011;7632;64.944;20.038;2023-08-01T10:35:06;2.85;;;2.55;;
15065;SDS011;7632;64.944;20.038;2023-08-01T10:37:41;3.97;;;2.55;;
15065;SDS011;7632;64.944;20.038;2023-08-01T10:40:08;3.20;;;2.35;;
15065;SDS011;7632;64.944;20.038;2023-08-01T10:42:39;2.75;;;2.45;;
15065;SDS011;7632;64.944;20.038;2023-08-01T10:45:06;2.95;;;2.67;;
15065;SDS011;7632;64.944;20.038;2023-08-01T10:47:34;4.50;;;2.40;;
15065;SDS011;7632;64.944;20.038;2023-08-01T10:50:00;4.30;;;2.80;;
15065;SDS011;7632;64.944;20.038;2023-08-01T10:52:28;4.65;;;2.50;;
15065;SDS011;7632;64.944;20.038;2023-08-01T10:54:59;5.20;;;2.63;;
15065;SDS011;7632;64.944;20.038;2023-08-01T10:57:27;2.88;;;2.42;;
15065;SDS011;7632;64.944;20.038;2023-08-01T10:59:54;5.65;;;2.63;;
15065;SDS011;7632;64.944;20.038;2023-08-01T11:02:22;2.60;;;2.10;;
15065;SDS011;7632;64.944;20.038;2023-08-01T11:04:57;2.50;;;2.30;;
15065;SDS011;7632;64.944;20.038;2023-08-01T11:07:24;2.60;;;2.38;;
15065;SDS011;7632;64.944;20.038;2023-08-01T11:10:03;5.95;;;2.50;;
15065;SDS011;7632;64.944;20.038;2023-08-01T11:12:33;4.82;;;2.03;;
15065;SDS011;7632;64.944;20.038;2023-08-01T11:15:00;4.13;;;2.28;;
15065;SDS011;7632;64.944;20.038;2023-08-01T11:17:28;4.38;;;2.38;;
15065;SDS011;7632;64.944;20.038;2023-08-01T11:20:00;2.95;;;2.30;;
15065;SDS011;7632;64.944;20.038;2023-08-01T11:22:28;5.78;;;2.35;;
15065;SDS011;7632;64.944;20.038;2023-08-01T11:24:54;3.30;;;2.30;;
15065;SDS011;7632;64.944;20.038;2023-08-01T11:27:22;2.58;;;2.20;;
15065;SDS011;7632;64.944;20.038;2023-08-01T11:29:49;2.03;;;1.83;;
15065;SDS011;7632;64.944;20.038;2023-08-01T11:32:16;3.05;;;2.15;;
15065;SDS011;7632;64.944;20.038;2023-08-01T11:34:43;2.53;;;1.88;;
15065;SDS011;7632;64.944;20.038;2023-08-01T11:37:11;2.33;;;2.13;;
15065;SDS011;7632;64.944;20.038;2023-08-01T11:39:38;2.60;;;2.22;;
15065;SDS011;7632;64.944;20.038;2023-08-01T11:42:05;3.20;;;2.40;;
15065;SDS011;7632;64.944;20.038;2023-08-01T11:44:33;2.47;;;2.10;;
15065;SDS011;7632;64.944;20.038;2023-08-01T11:47:00;5.35;;;2.10;;
15065;SDS011;7632;64.944;20.038;2023-08-01T11:49:28;2.83;;;2.35;;
15065;SDS011;7632;64.944;20.038;2023-08-01T11:51:55;2.17;;;1.98;;
15065;SDS011;7632;64.944;20.038;2023-08-01T11:54:22;3.33;;;2.13;;
15065;SDS011;7632;64.944;20.038;2023-08-01T11:56:48;3.28;;;1.90;;
15065;SDS011;7632;64.944;20.038;2023-08-01T11:59:16;3.35;;;2.00;;
15065;SDS011;7632;64.944;20.038;2023-08-01T12:01:45;2.67;;;2.13;;
15065;SDS011;7632;64.944;20.038;2023-08-01T12:04:23;2.30;;;2.03;;
15065;SDS011;7632;64.944;20.038;2023-08-01T12:06:50;4.53;;;1.98;;
15065;SDS011;7632;64.944;20.038;2023-08-01T12:09:18;2.58;;;1.90;;
15065;SDS011;7632;64.944;20.038;2023-08-01T12:11:45;2.92;;;2.15;;
15065;SDS011;7632;64.944;20.038;2023-08-01T12:14:13;2.53;;;1.83;;
15065;SDS011;7632;64.944;20.038;2023-08-01T12:16:41;3.03;;;1.85;;
15065;SDS011;7632;64.944;20.038;2023-08-01T12:19:12;3.28;;;1.90;;
15065;SDS011;7632;64.944;20.038;2023-08-01T12:21:43;4.10;;;1.90;;
15065;SDS011;7632;64.944;20.038;2023-08-01T12:24:10;1.77;;;1.67;;
15065;SDS011;7632;64.944;20.038;2023-08-01T12:26:37;2.85;;;1.98;;
15065;SDS011;7632;64.944;20.038;2023-08-01T12:29:04;3.67;;;2.08;;
15065;SDS011;7632;64.944;20.038;2023-08-01T12:31:30;3.35;;;1.65;;
15065;SDS011;7632;64.944;20.038;2023-08-01T12:33:57;2.83;;;1.90;;
15065;SDS011;7632;64.944;20.038;2023-08-01T12:36:25;2.85;;;1.83;;
15065;SDS011;7632;64.944;20.038;2023-08-01T12:38:52;2.58;;;1.73;;
15065;SDS011;7632;64.944;20.038;2023-08-01T12:41:19;2.25;;;1.80;;
15065;SDS011;7632;64.944;20.038;2023-08-01T12:43:46;2.42;;;1.83;;
15065;SDS011;7632;64.944;20.038;2023-08-01T12:46:12;1.85;;;1.58;;
15065;SDS011;7632;64.944;20.038;2023-08-01T12:48:39;2.60;;;1.80;;
15065;SDS011;7632;64.944;20.038;2023-08-01T12:51:06;2.50;;;2.00;;
15065;SDS011;7632;64.944;20.038;2023-08-01T12:53:35;3.75;;;2.10;;
15065;SDS011;7632;64.944;20.038;2023-08-01T12:56:02;3.50;;;1.90;;
15065;SDS011;7632;64.944;20.038;2023-08-01T12:58:29;2.22;;;2.03;;
15065;SDS011;7632;64.944;20.038;2023-08-01T13:00:57;2.15;;;1.80;;
15065;SDS011;7632;64.944;20.038;2023-08-01T13:03:23;2.53;;;2.00;;
15065;SDS011;7632;64.944;20.038;2023-08-01T13:05:50;1.95;;;1.65;;
15065;SDS011;7632;64.944;20.038;2023-08-01T13:08:18;2.20;;;1.80;;
15065;SDS011;7632;64.944;20.038;2023-08-01T13:10:46;5.57;;;2.28;;
15065;SDS011;7632;64.944;20.038;2023-08-01T13:13:14;4.50;;;2.00;;
15065;SDS011;7632;64.944;20.038;2023-08-01T13:15:41;3.22;;;2.00;;
15065;SDS011;7632;64.944;20.038;2023-08-01T13:18:08;2.25;;;1.80;;
15065;SDS011;7632;64.944;20.038;2023-08-01T13:20:35;3.38;;;1.98;;
15065;SDS011;7632;64.944;20.038;2023-08-01T13:23:02;2.55;;;1.92;;
15065;SDS011;7632;64.944;20.038;2023-08-01T13:25:29;4.72;;;1.95;;
15065;SDS011;7632;64.944;20.038;2023-08-01T13:27:57;2.17;;;1.75;;
15065;SDS011;7632;64.944;20.038;2023-08-01T13:30:24;2.35;;;1.83;;
15065;SDS011;7632;64.944;20.038;2023-08-01T13:32:51;1.85;;;1.70;;
15065;SDS011;7632;64.944;20.038;2023-08-01T13:35:17;2.40;;;1.70;;
15065;SDS011;7632;64.944;20.038;2023-08-01T13:37:44;3.53;;;1.85;;
15065;SDS011;7632;64.944;20.038;2023-08-01T13:40:11;2.42;;;1.80;;
15065;SDS011;7632;64.944;20.038;2023-08-01T13:42:39;2.28;;;1.90;;
15065;SDS011;7632;64.944;20.038;2023-08-01T13:45:07;2.38;;;1.58;;
15065;SDS011;7632;64.944;20.038;2023-08-01T13:47:35;4.32;;;2.35;;
15065;SDS011;7632;64.944;20.038;2023-08-01T13:50:01;2.80;;;1.70;;
15065;SDS011;7632;64.944;20.038;2023-08-01T13:52:28;3.70;;;2.15;;
15065;SDS011;7632;64.944;20.038;2023-08-01T13:54:55;3.17;;;1.80;;
15065;SDS011;7632;64.944;20.038;2023-08-01T13:57:22;1.75;;;1.58;;
15065;SDS011;7632;64.944;20.038;2023-08-01T13:59:49;2.35;;;1.60;;
15065;SDS011;7632;64.944;20.038;2023-08-01T14:02:17;3.63;;;1.88;;
15065;SDS011;7632;64.944;20.038;2023-08-01T14:04:44;4.30;;;1.63;;
15065;SDS011;7632;64.944;20.038;2023-08-01T14:07:11;2.22;;;1.70;;
15065;SDS011;7632;64.944;20.038;2023-08-01T14:09:37;2.30;;;1.55;;
15065;SDS011;7632;64.944;20.038;2023-08-01T14:12:05;3.28;;;1.80;;
15065;SDS011;7632;64.944;20.038;2023-08-01T14:14:32;2.58;;;1.70;;
15065;SDS011;7632;64.944;20.038;2023-08-01T14:16:59;2.88;;;1.70;;
15065;SDS011;7632;64.944;20.038;2023-08-01T14:19:27;2.55;;;1.85;;
15065;SDS011;7632;64.944;20.038;2023-08-01T14:21:55;2.60;;;1.70;;
15065;SDS011;7632;64.944;20.038;2023-08-01T14:24:21;2.78;;;1.55;;
15065;SDS011;7632;64.944;20.038;2023-08-01T14:26:48;3.35;;;1.90;;
15065;SDS011;7632;64.944;20.038;2023-08-01T14:29:16;2.78;;;1.92;;
15065;SDS011;7632;64.944;20.038;2023-08-01T14:31:43;3.28;;;1.50;;
15065;SDS011;7632;64.944;20.038;2023-08-01T14:34:10;2.78;;;1.60;;
15065;SDS011;7632;64.944;20.038;2023-08-01T14:36:38;2.42;;;1.60;;
15065;SDS011;7632;64.944;20.038;2023-08-01T14:39:05;4.15;;;1.77;;
15065;SDS011;7632;64.944;20.038;2023-08-01T14:41:31;2.65;;;1.70;;
15065;SDS011;7632;64.944;20.038;2023-08-01T14:43:58;3.20;;;1.80;;
15065;SDS011;7632;64.944;20.038;2023-08-01T14:46:25;3.75;;;1.80;;
15065;SDS011;7632;64.944;20.038;2023-08-01T14:48:52;2.20;;;1.65;;
15065;SDS011;7632;64.944;20.038;2023-08-01T14:51:18;3.65;;;1.60;;
15065;SDS011;7632;64.944;20.038;2023-08-01T14:53:47;2.55;;;1.50;;
15065;SDS011;7632;64.944;20.038;2023-08-01T14:56:13;2.70;;;1.77;;
15065;SDS011;7632;64.944;20.038;2023-08-01T14:58:40;2.58;;;1.90;;
15065;SDS011;7632;64.944;20.038;2023-08-01T15:01:11;3.45;;;1.73;;
15065;SDS011;7632;64.944;20.038;2023-08-01T15:03:39;2.83;;;1.70;;
15065;SDS011;7632;64.944;20.038;2023-08-01T15:06:05;2.47;;;1.60;;
15065;SDS011;7632;64.944;20.038;2023-08-01T15:08:33;2.67;;;1.50;;
15065;SDS011;7632;64.944;20.038;2023-08-01T15:11:03;4.72;;;1.60;;
15065;SDS011;7632;64.944;20.038;2023-08-01T15:13:31;3.30;;;1.67;;
15065;SDS011;7632;64.944;20.038;2023-08-01T15:15:57;3.17;;;1.40;;
15065;SDS011;7632;64.944;20.038;2023-08-01T15:18:24;3.33;;;1.70;;
15065;SDS011;7632;64.944;20.038;2023-08-01T15:20:51;3.38;;;1.60;;
15065;SDS011;7632;64.944;20.038;2023-08-01T15:23:18;4.03;;;2.00;;
15065;SDS011;7632;64.944;20.038;2023-08-01T15:25:51;3.67;;;1.67;;
15065;SDS011;7632;64.944;20.038;2023-08-01T15:28:19;2.47;;;1.40;;
15065;SDS011;7632;64.944;20.038;2023-08-01T15:30:46;2.55;;;1.60;;
15065;SDS011;7632;64.944;20.038;2023-08-01T15:33:13;2.47;;;1.55;;
15065;SDS011;7632;64.944;20.038;2023-08-01T15:35:41;1.60;;;1.50;;
15065;SDS011;7632;64.944;20.038;2023-08-01T15:38:07;2.28;;;1.73;;
15065;SDS011;7632;64.944;20.038;2023-08-01T15:40:34;1.77;;;1.52;;
15065;SDS011;7632;64.944;20.038;2023-08-01T15:43:01;2.90;;;1.80;;
15065;SDS011;7632;64.944;20.038;2023-08-01T15:45:29;3.35;;;1.55;;
15065;SDS011;7632;64.944;20.038;2023-08-01T15:47:56;3.38;;;1.50;;
15065;SDS011;7632;64.944;20.038;2023-08-01T15:50:22;3.38;;;1.60;;
15065;SDS011;7632;64.944;20.038;2023-08-01T15:52:49;4.15;;;1.67;;
15065;SDS011;7632;64.944;20.038;2023-08-01T15:55:16;3.78;;;1.80;;
15065;SDS011;7632;64.944;20.038;2023-08-01T15:57:42;1.80;;;1.40;;
15065;SDS011;7632;64.944;20.038;2023-08-01T16:00:10;2.28;;;1.50;;
15065;SDS011;7632;64.944;20.038;2023-08-01T16:02:44;2.50;;;1.70;;
15065;SDS011;7632;64.944;20.038;2023-08-01T16:05:11;2.22;;;1.65;;
15065;SDS011;7632;64.944;20.038;2023-08-01T16:07:38;1.98;;;1.45;;
15065;SDS011;7632;64.944;20.038;2023-08-01T16:10:05;2.97;;;1.55;;
15065;SDS011;7632;64.944;20.038;2023-08-01T16:12:31;2.92;;;1.67;;
15065;SDS011;7632;64.944;20.038;2023-08-01T16:14:58;3.47;;;1.63;;
15065;SDS011;7632;64.944;20.038;2023-08-01T16:17:25;4.03;;;2.08;;
15065;SDS011;7632;64.944;20.038;2023-08-01T16:19:53;3.03;;;1.83;;
15065;SDS011;7632;64.944;20.038;2023-08-01T16:22:20;3.30;;;1.60;;
15065;SDS011;7632;64.944;20.038;2023-08-01T16:24:47;3.10;;;2.00;;
15065;SDS011;7632;64.944;20.038;2023-08-01T16:27:14;1.77;;;1.52;;
15065;SDS011;7632;64.944;20.038;2023-08-01T16:29:40;2.58;;;1.90;;
15065;SDS011;7632;64.944;20.038;2023-08-01T16:32:13;3.13;;;1.83;;
15065;SDS011;7632;64.944;20.038;2023-08-01T16:34:40;4.43;;;1.80;;
15065;SDS011;7632;64.944;20.038;2023-08-01T16:37:08;3.22;;;2.03;;
15065;SDS011;7632;64.944;20.038;2023-08-01T16:39:35;6.25;;;1.80;;
15065;SDS011;7632;64.944;20.038;2023-08-01T16:42:01;4.43;;;1.95;;
15065;SDS011;7632;64.944;20.038;2023-08-01T16:44:28;3.88;;;2.08;;
15065;SDS011;7632;64.944;20.038;2023-08-01T16:46:55;3.55;;;2.30;;
15065;SDS011;7632;64.944;20.038;2023-08-01T16:49:22;4.47;;;2.20;;
15065;SDS011;7632;64.944;20.038;2023-08-01T16:51:48;3.40;;;2.15;;
15065;SDS011;7632;64.944;20.038;2023-08-01T16:54:16;3.95;;;2.22;;
15065;SDS011;7632;64.944;20.038;2023-08-01T16:56:43;3.85;;;1.95;;
15065;SDS011;7632;64.944;20.038;2023-08-01T16:59:10;3.67;;;2.20;;
15065;SDS011;7632;64.944;20.038;2023-08-01T17:01:36;4.47;;;1.90;;
15065;SDS011;7632;64.944;20.038;2023-08-01T17:04:03;3.72;;;2.35;;
15065;SDS011;7632;64.944;20.038;2023-08-01T17:06:31;2.28;;;2.00;;
15065;SDS011;7632;64.944;20.038;2023-08-01T17:08:58;2.45;;;2.10;;
15065;SDS011;7632;64.944;20.038;2023-08-01T17:11:26;5.63;;;2.40;;
15065;SDS011;7632;64.944;20.038;2023-08-01T17:13:52;2.55;;;1.92;;
15065;SDS011;7632;64.944;20.038;2023-08-01T17:16:19;3.72;;;2.00;;
15065;SDS011;7632;64.944;20.038;2023-08-01T17:18:46;2.35;;;2.05;;
15065;SDS011;7632;64.944;20.038;2023-08-01T17:21:12;4.63;;;2.40;;
15065;SDS011;7632;64.944;20.038;2023-08-01T17:23:41;6.05;;;2.42;;
15065;SDS011;7632;64.944;20.038;2023-08-01T17:26:08;2.42;;;2.20;;
15065;SDS011;7632;64.944;20.038;2023-08-01T17:28:36;3.35;;;2.15;;
15065;SDS011;7632;64.944;20.038;2023-08-01T17:31:03;3.38;;;2.38;;
15065;SDS011;7632;64.944;20.038;2023-08-01T17:33:30;3.92;;;2.40;;
15065;SDS011;7632;64.944;20.038;2023-08-01T17:35:57;4.75;;;2.10;;
15065;SDS011;7632;64.944;20.038;2023-08-01T17:38:23;3.50;;;2.13;;
15065;SDS011;7632;64.944;20.038;2023-08-01T17:40:50;5.70;;;2.20;;
15065;SDS011;7632;64.944;20.038;2023-08-01T17:43:17;4.93;;;2.60;;
15065;SDS011;7632;64.944;20.038;2023-08-01T17:45:45;5.72;;;2.25;;
15065;SDS011;7632;64.944;20.038;2023-08-01T17:48:12;4.47;;;2.45;;
15065;SDS011;7632;64.944;20.038;2023-08-01T17:50:41;4.28;;;2.38;;
15065;SDS011;7632;64.944;20.038;2023-08-01T17:53:08;5.07;;;2.20;;
15065;SDS011;7632;64.944;20.038;2023-08-01T17:55:35;2.90;;;2.30;;
15065;SDS011;7632;64.944;20.038;2023-08-01T17:58:02;3.20;;;2.20;;
15065;SDS011;7632;64.944;20.038;2023-08-01T18:00:28;4.75;;;2.45;;
15065;SDS011;7632;64.944;20.038;2023-08-01T18:02:56;4.70;;;2.60;;
15065;SDS011;7632;64.944;20.038;2023-08-01T18:05:23;7.63;;;2.45;;
15065;SDS011;7632;64.944;20.038;2023-08-01T18:07:50;3.63;;;2.30;;
15065;SDS011;7632;64.944;20.038;2023-08-01T18:10:16;3.53;;;2.30;;
15065;SDS011;7632;64.944;20.038;2023-08-01T18:12:45;5.85;;;2.50;;
15065;SDS011;7632;64.944;20.038;2023-08-01T18:15:12;4.15;;;2.25;;
15065;SDS011;7632;64.944;20.038;2023-08-01T18:17:39;3.20;;;2.50;;
15065;SDS011;7632;64.944;20.038;2023-08-01T18:20:08;6.40;;;2.55;;
15065;SDS011;7632;64.944;20.038;2023-08-01T18:22:35;3.90;;;2.47;;
15065;SDS011;7632;64.944;20.038;2023-08-01T18:25:02;2.58;;;2.20;;
15065;SDS011;7632;64.944;20.038;2023-08-01T18:27:29;3.17;;;2.47;;
15065;SDS011;7632;64.944;20.038;2023-08-01T18:29:56;6.47;;;2.53;;
15065;SDS011;7632;64.944;20.038;2023-08-01T18:32:22;5.80;;;2.70;;
15065;SDS011;7632;64.944;20.038;2023-08-01T18:34:49;4.63;;;2.38;;
15065;SDS011;7632;64.944;20.038;2023-08-01T18:37:21;4.82;;;2.40;;
15065;SDS011;7632;64.944;20.038;2023-08-01T18:39:51;4.53;;;2.38;;
15065;SDS011;7632;64.944;20.038;2023-08-01T18:42:18;3.78;;;2.33;;
15065;SDS011;7632;64.944;20.038;2023-08-01T18:44:45;8.52;;;3.08;;
15065;SDS011;7632;64.944;20.038;2023-08-01T18:47:12;4.10;;;2.80;;
15065;SDS011;7632;64.944;20.038;2023-08-01T18:49:38;3.70;;;2.40;;
15065;SDS011;7632;64.944;20.038;2023-08-01T18:52:05;3.45;;;2.50;;
15065;SDS011;7632;64.944;20.038;2023-08-01T18:54:34;5.45;;;2.58;;
15065;SDS011;7632;64.944;20.038;2023-08-01T18:57:01;5.53;;;2.63;;
15065;SDS011;7632;64.944;20.038;2023-08-01T18:59:28;5.40;;;2.60;;
15065;SDS011;7632;64.944;20.038;2023-08-01T19:01:54;3.60;;;2.55;;
15065;SDS011;7632;64.944;20.038;2023-08-01T19:04:21;4.30;;;2.72;;
15065;SDS011;7632;64.944;20.038;2023-08-01T19:06:48;4.30;;;2.70;;
15065;SDS011;7632;64.944;20.038;2023-08-01T19:09:14;4.40;;;2.83;;
15065;SDS011;7632;64.944;20.038;2023-08-01T19:11:43;3.75;;;3.10;;
15065;SDS011;7632;64.944;20.038;2023-08-01T19:14:09;4.10;;;3.00;;
15065;SDS011;7632;64.944;20.038;2023-08-01T19:16:36;3.97;;;2.80;;
15065;SDS011;7632;64.944;20.038;2023-08-01T19:19:03;4.75;;;3.15;;
15065;SDS011;7632;64.944;20.038;2023-08-01T19:21:29;5.15;;;2.92;;
15065;SDS011;7632;64.944;20.038;2023-08-01T19:23:56;6.82;;;3.15;;